createdAt,value
2019-05-10T00:01:09.056Z,99.9
2019-05-10T00:02:18.391Z,99.9
2019-05-10T00:03:27.838Z,99.9
2019-05-10T00:04:37.403Z,99.9
2019-05-10T00:05:46.777Z,99.9
2019-05-10T00:06:56.336Z,99.9
2019-05-10T00:08:05.770Z,99.9
2019-05-10T00:09:15.204Z,99.9
2019-05-10T00:10:24.922Z,99.9
2019-05-10T00:11:34.020Z,99.9
2019-05-10T00:12:43.595Z,99.9
2019-05-10T00:13:53.004Z,99.9
2019-05-10T00:15:02.794Z,99.9
2019-05-10T00:16:11.971Z,99.9
2019-05-10T00:17:21.316Z,99.9
2019-05-10T00:18:30.761Z,99.9
2019-05-10T00:19:40.348Z,99.9
2019-05-10T00:20:49.669Z,99.9
2019-05-10T00:21:59.155Z,99.9
2019-05-10T00:23:08.693Z,99.8
2019-05-10T00:24:18.040Z,99.4
2019-05-10T00:25:27.549Z,99.2
2019-05-10T00:26:36.959Z,99.3
2019-05-10T00:27:46.990Z,97.4
2019-05-10T00:28:55.968Z,96.9
2019-05-10T00:30:05.355Z,96.6
2019-05-10T00:31:14.804Z,96.1
2019-05-10T00:32:24.338Z,96.3
2019-05-10T00:33:33.883Z,95.5
2019-05-10T00:34:43.477Z,95.4
2019-05-10T00:35:52.790Z,93.6
2019-05-10T00:37:02.175Z,92.9
2019-05-10T00:39:21.071Z,92.5
2019-05-10T00:41:40.034Z,91.5
2019-05-10T00:42:49.515Z,91.4
2019-05-10T00:43:59.134Z,91.2
2019-05-10T00:45:08.514Z,90.7
2019-05-10T00:46:17.907Z,90.1
2019-05-10T00:47:27.458Z,88.6
2019-05-10T00:48:36.841Z,88.3
2019-05-10T00:49:46.348Z,87.3
2019-05-10T00:50:55.741Z,88.4
2019-05-10T00:52:05.202Z,86.1
2019-05-10T00:54:24.155Z,87.9
2019-05-10T00:55:33.634Z,88.4
2019-05-10T00:56:43.263Z,88.8
2019-05-10T00:57:52.890Z,88
2019-05-10T00:59:02.156Z,84.3
2019-05-10T01:00:11.615Z,84.9
2019-05-10T01:01:21.143Z,85.2
2019-05-10T01:02:30.479Z,85.6
2019-05-10T01:03:40.076Z,86.6
2019-05-10T01:04:49.432Z,87
2019-05-10T01:05:58.916Z,87.2
2019-05-10T01:07:09.627Z,86.3
2019-05-10T01:08:19.013Z,87
2019-05-10T01:09:28.510Z,87.4
2019-05-10T01:11:47.479Z,87.9
2019-05-10T01:12:57.038Z,88.3
2019-05-10T01:14:06.626Z,88.1
2019-05-10T01:15:16.636Z,88.6
2019-05-10T01:16:25.317Z,88.5
2019-05-10T01:17:34.904Z,88.2
2019-05-10T01:18:44.315Z,88.4
2019-05-10T01:19:53.853Z,87.8
2019-05-10T01:21:03.371Z,88.5
2019-05-10T01:22:12.747Z,88.3
2019-05-10T01:23:22.193Z,88.8
2019-05-10T01:24:31.655Z,88.4
2019-05-10T01:25:41.168Z,88.7
2019-05-10T01:26:50.692Z,88.5
2019-05-10T01:28:00.067Z,88.5
2019-05-10T01:29:09.607Z,88
2019-05-10T01:30:19.018Z,87.5
2019-05-10T01:31:28.491Z,87.4
2019-05-10T01:32:38.236Z,87.8
2019-05-10T01:33:47.425Z,86.5
2019-05-10T01:34:56.890Z,85.7
2019-05-10T01:36:06.367Z,87.4
2019-05-10T01:37:15.952Z,87.5
2019-05-10T01:38:25.316Z,86.7
2019-05-10T01:39:34.784Z,86.4
2019-05-10T01:40:45.825Z,86.7
2019-05-10T01:41:53.760Z,86.3
2019-05-10T01:43:03.263Z,85.7
2019-05-10T01:44:12.733Z,85.7
2019-05-10T01:45:22.513Z,85.1
2019-05-10T01:46:31.831Z,85.3
2019-05-10T01:47:41.183Z,85.8
2019-05-10T01:48:50.646Z,84.7
2019-05-10T01:50:00.055Z,84
2019-05-10T01:51:09.509Z,85
2019-05-10T01:52:19.005Z,84.1
2019-05-10T01:53:28.573Z,83.9
2019-05-10T01:54:38.085Z,84.2
2019-05-10T01:55:52.862Z,83.8
2019-05-10T01:56:56.994Z,84
2019-05-10T01:58:06.386Z,90.3
2019-05-10T01:59:16.256Z,85.1
2019-05-10T02:00:25.716Z,95.8
2019-05-10T02:01:34.815Z,94.2
2019-05-10T02:02:44.276Z,99.9
2019-05-10T02:03:53.814Z,99.2
2019-05-10T02:05:03.219Z,99.9
2019-05-10T02:06:14.007Z,99.9
2019-05-10T02:07:23.190Z,99.9
2019-05-10T02:08:32.723Z,99.9
2019-05-10T02:09:43.104Z,99.9
2019-05-10T02:10:52.946Z,99.9
2019-05-10T02:12:01.039Z,99.9
2019-05-10T02:13:10.530Z,99.9
2019-05-10T02:14:19.992Z,99.9
2019-05-10T02:15:29.628Z,99.9
2019-05-10T02:16:39.206Z,99.9
2019-05-10T02:17:48.469Z,99.9
2019-05-10T02:18:57.810Z,99.9
2019-05-10T02:20:07.257Z,99.9
2019-05-10T02:21:16.876Z,99.9
2019-05-10T02:22:26.239Z,99.9
2019-05-10T02:23:35.625Z,99.9
2019-05-10T02:24:45.090Z,99.9
2019-05-10T02:26:09.900Z,99.9
2019-05-10T02:27:04.045Z,99.9
2019-05-10T02:28:13.443Z,99.9
2019-05-10T02:29:23.065Z,99.9
2019-05-10T02:30:32.850Z,99.9
2019-05-10T02:31:41.806Z,99.9
2019-05-10T02:32:51.300Z,99.9
2019-05-10T02:34:00.748Z,99.9
2019-05-10T02:35:10.189Z,99.9
2019-05-10T02:36:19.656Z,99.9
2019-05-10T02:37:29.138Z,99.9
2019-05-10T02:38:38.566Z,99.9
2019-05-10T02:39:47.976Z,99.9
2019-05-10T02:40:57.442Z,99.9
2019-05-10T02:42:06.888Z,99.9
2019-05-10T02:43:16.430Z,99.9
2019-05-10T02:44:25.873Z,99.9
2019-05-10T02:45:35.237Z,99.9
2019-05-10T02:46:44.757Z,99.9
2019-05-10T02:47:54.244Z,99.9
2019-05-10T02:49:03.592Z,99.9
2019-05-10T02:50:13.109Z,99.9
2019-05-10T02:51:22.936Z,99.9
2019-05-10T02:52:32.029Z,99.9
2019-05-10T02:53:41.377Z,99.9
2019-05-10T02:54:51.305Z,99.9
2019-05-10T02:56:00.271Z,99.9
2019-05-10T02:57:09.733Z,99.9
2019-05-10T02:58:19.268Z,99.9
2019-05-10T02:59:28.727Z,99.9
2019-05-10T03:00:38.150Z,99.9
2019-05-10T03:01:47.649Z,99.9
2019-05-10T03:02:56.958Z,99.9
2019-05-10T03:04:06.684Z,99.9
2019-05-10T03:05:15.934Z,99.9
2019-05-10T03:06:25.379Z,99.9
2019-05-10T03:07:34.861Z,99.9
2019-05-10T03:08:44.368Z,99.9
2019-05-10T03:09:53.878Z,99.9
2019-05-10T03:11:04.163Z,99.9
2019-05-10T03:12:13.616Z,99.9
2019-05-10T03:13:27.321Z,99.9
2019-05-10T03:14:32.602Z,99.9
2019-05-10T03:15:42.443Z,99.9
2019-05-10T03:16:51.574Z,99.9
2019-05-10T03:18:00.832Z,99.9
2019-05-10T03:19:10.377Z,99.9
2019-05-10T03:20:19.856Z,99.9
2019-05-10T03:21:29.304Z,99.9
2019-05-10T03:22:38.645Z,99.9
2019-05-10T03:23:48.426Z,99.9
2019-05-10T03:24:57.639Z,99.9
2019-05-10T03:26:07.048Z,99.9
2019-05-10T03:27:16.403Z,99.9
2019-05-10T03:28:26.124Z,99.9
2019-05-10T03:29:35.268Z,99.9
2019-05-10T03:30:44.797Z,99.9
2019-05-10T03:31:54.268Z,99.9
2019-05-10T03:33:04.041Z,99.9
2019-05-10T03:34:13.063Z,99.9
2019-05-10T03:35:22.511Z,99.9
2019-05-10T03:36:31.937Z,99.9
2019-05-10T03:37:41.504Z,99.9
2019-05-10T03:38:50.867Z,99.9
2019-05-10T03:40:00.917Z,99.9
2019-05-10T03:41:09.716Z,99.9
2019-05-10T03:42:19.269Z,99.9
2019-05-10T03:43:28.955Z,99.9
2019-05-10T03:44:38.157Z,99.9
2019-05-10T03:45:47.524Z,99.9
2019-05-10T03:46:57.046Z,99.9
2019-05-10T03:48:06.370Z,99.9
2019-05-10T03:49:15.862Z,99.9
2019-05-10T03:50:25.451Z,99.9
2019-05-10T03:51:34.684Z,99.9
2019-05-10T03:52:44.169Z,99.9
2019-05-10T03:53:53.584Z,99.9
2019-05-10T03:55:03.023Z,99.9
2019-05-10T03:57:21.906Z,99.9
2019-05-10T03:58:31.382Z,99.9
2019-05-10T03:59:40.803Z,99.9
2019-05-10T04:00:50.308Z,99.9
2019-05-10T04:01:59.810Z,99.9
2019-05-10T04:03:09.155Z,99.9
2019-05-10T04:04:18.574Z,99.9
2019-05-10T04:05:28.103Z,99.9
2019-05-10T04:06:37.617Z,99.9
2019-05-10T04:07:46.901Z,99.9
2019-05-10T04:08:56.385Z,99.9
2019-05-10T04:10:05.857Z,99.9
2019-05-10T04:11:15.231Z,99.9
2019-05-10T04:12:25.023Z,99.9
2019-05-10T04:13:34.205Z,99.9
2019-05-10T04:14:43.557Z,99.9
2019-05-10T04:15:53.458Z,99.9
2019-05-10T04:17:02.465Z,99.9
2019-05-10T04:18:11.905Z,99.9
2019-05-10T04:19:21.442Z,99.9
2019-05-10T04:20:30.785Z,99.9
2019-05-10T04:21:40.230Z,99.9
2019-05-10T04:22:49.684Z,99.9
2019-05-10T04:23:59.159Z,99.9
2019-05-10T04:25:08.568Z,99.9
2019-05-10T04:26:18.105Z,99.9
2019-05-10T04:27:33.210Z,99.9
2019-05-10T04:28:36.924Z,99.9
2019-05-10T04:29:46.426Z,99.9
2019-05-10T04:30:55.915Z,99.9
2019-05-10T04:33:14.724Z,99.9
2019-05-10T04:34:24.156Z,99.9
2019-05-10T04:35:33.592Z,99.9
2019-05-10T04:36:43.036Z,99.9
2019-05-10T04:37:52.609Z,99.9
2019-05-10T04:39:01.932Z,99.9
2019-05-10T04:40:15.052Z,99.9
2019-05-10T04:41:20.816Z,99.9
2019-05-10T04:42:30.304Z,99.9
2019-05-10T04:43:39.758Z,99.9
2019-05-10T04:44:54.080Z,99.9
2019-05-10T04:45:58.602Z,99.9
2019-05-10T04:47:08.149Z,99.9
2019-05-10T04:48:17.515Z,99.9
2019-05-10T04:49:26.946Z,99.9
2019-05-10T04:50:36.537Z,99.9
2019-05-10T04:51:45.960Z,99.9
2019-05-10T04:54:04.794Z,99.9
2019-05-10T04:55:14.207Z,99.9
2019-05-10T04:56:23.677Z,99.9
2019-05-10T04:57:51.139Z,99.9
2019-05-10T04:58:42.844Z,99.9
2019-05-10T04:59:52.129Z,99.9
2019-05-10T05:01:01.714Z,99.9
2019-05-10T05:02:11.098Z,99.9
2019-05-10T05:03:20.405Z,99.9
2019-05-10T05:04:29.942Z,99.9
2019-05-10T05:05:39.336Z,99.9
2019-05-10T05:06:48.785Z,99.9
2019-05-10T05:07:58.242Z,99.9
2019-05-10T05:09:07.836Z,99.9
2019-05-10T05:10:19.783Z,99.9
2019-05-10T05:11:26.699Z,99.9
2019-05-10T05:12:36.142Z,99.9
2019-05-10T05:13:45.557Z,99.9
2019-05-10T05:14:55.018Z,99.9
2019-05-10T05:16:04.681Z,99.9
2019-05-10T05:17:14.002Z,99.9
2019-05-10T05:18:23.451Z,99.9
2019-05-10T05:19:32.942Z,99.9
2019-05-10T05:20:42.377Z,99.9
2019-05-10T05:21:51.897Z,99.9
2019-05-10T05:23:01.641Z,99.9
2019-05-10T05:24:10.988Z,99.9
2019-05-10T05:25:22.312Z,99.9
2019-05-10T05:26:29.898Z,99.9
2019-05-10T05:27:39.303Z,99.9
2019-05-10T05:28:48.688Z,99.9
2019-05-10T05:29:58.162Z,99.9
2019-05-10T05:31:07.879Z,99.9
2019-05-10T05:32:17.127Z,99.9
2019-05-10T05:33:26.864Z,99.9
2019-05-10T05:34:36.121Z,99.9
2019-05-10T05:35:45.719Z,99.9
2019-05-10T05:36:55.134Z,99.9
2019-05-10T05:38:04.599Z,99.9
2019-05-10T05:39:14.379Z,99.9
2019-05-10T05:40:25.542Z,99.4
2019-05-10T05:42:42.850Z,95.4
2019-05-10T05:43:52.080Z,97.1
2019-05-10T05:45:01.700Z,95.5
2019-05-10T05:46:14.787Z,97.5
2019-05-10T05:47:20.642Z,96.1
2019-05-10T05:48:40.705Z,94.4
2019-05-10T05:49:40.171Z,92.3
2019-05-10T05:50:49.209Z,91.3
2019-05-10T05:51:58.902Z,91.1
2019-05-10T05:53:08.244Z,88
2019-05-10T05:54:22.573Z,87
2019-05-10T05:55:32.179Z,80.8
2019-05-10T05:56:36.982Z,82.3
2019-05-10T05:57:46.536Z,80.2
2019-05-10T05:58:55.966Z,79.8
2019-05-10T06:00:06.958Z,75.3
2019-05-10T06:01:28.771Z,74.8
2019-05-10T06:02:24.701Z,75.2
2019-05-10T06:03:34.243Z,76.1
2019-05-10T06:04:47.666Z,77.5
2019-05-10T06:07:03.031Z,81.7
2019-05-10T06:08:24.903Z,83.7
2019-05-10T06:09:22.296Z,84.9
2019-05-10T06:10:32.337Z,89.5
2019-05-10T06:11:41.504Z,90.1
2019-05-10T06:12:53.104Z,89.3
2019-05-10T06:15:10.337Z,90.7
2019-05-10T06:16:22.413Z,90.7
2019-05-10T06:17:31.833Z,90.8
2019-05-10T06:18:46.897Z,90.4
2019-05-10T06:19:49.549Z,91.3
2019-05-10T06:20:59.186Z,91.7
2019-05-10T06:22:08.701Z,92.2
2019-05-10T06:23:18.393Z,92.3
2019-05-10T06:24:27.983Z,92.1
2019-05-10T06:25:42.522Z,92.3
2019-05-10T06:26:47.018Z,92.3
2019-05-10T06:27:56.894Z,92.1
2019-05-10T06:29:17.711Z,92.5
2019-05-10T06:30:15.897Z,93.4
2019-05-10T06:31:25.346Z,92.5
2019-05-10T06:32:35.070Z,91.5
2019-05-10T06:33:46.898Z,92.4
2019-05-10T06:34:54.243Z,92.7
2019-05-10T06:36:03.815Z,94.2
2019-05-10T06:37:13.207Z,93.9
2019-05-10T06:38:23.134Z,94.7
2019-05-10T06:39:32.855Z,92.9
2019-05-10T06:41:58.328Z,91.3
2019-05-10T06:43:01.244Z,90.7
2019-05-10T06:44:10.850Z,88.7
2019-05-10T06:45:20.301Z,87.1
2019-05-10T06:46:31.276Z,87.7
2019-05-10T06:47:47.087Z,86.2
2019-05-10T06:48:49.094Z,85.6
2019-05-10T06:49:58.779Z,83.6
2019-05-10T06:51:12.372Z,81.3
2019-05-10T06:52:27.561Z,80.2
2019-05-10T06:53:27.578Z,81.1
2019-05-10T06:54:37.166Z,77
2019-05-10T06:55:46.903Z,73.3
2019-05-10T06:56:56.539Z,70.9
2019-05-10T06:58:06.337Z,72.8
2019-05-10T06:59:24.632Z,74.5
2019-05-10T07:00:25.458Z,75.4
2019-05-10T07:02:44.750Z,76
2019-05-10T07:03:54.536Z,75.8
2019-05-10T07:05:04.284Z,76.7
2019-05-10T07:06:13.827Z,77.6
2019-05-10T07:07:44.365Z,81.6
2019-05-10T07:08:45.888Z,83.1
2019-05-10T07:10:12.880Z,83.6
2019-05-10T07:10:53.851Z,85.9
2019-05-10T07:12:03.268Z,85.8
2019-05-10T07:13:12.933Z,90.7
2019-05-10T07:14:27.200Z,90.7
2019-05-10T07:16:41.737Z,87.2
2019-05-10T07:17:52.021Z,85.3
2019-05-10T07:19:02.397Z,86.4
2019-05-10T07:20:10.661Z,87
2019-05-10T07:21:20.299Z,89.8
2019-05-10T07:22:29.991Z,87.8
2019-05-10T07:23:47.672Z,95.4
2019-05-10T07:24:49.241Z,95.3
2019-05-10T07:25:58.833Z,96.5
2019-05-10T07:27:08.485Z,93.7
2019-05-10T07:28:18.090Z,91.3
2019-05-10T07:29:30.605Z,90.4
2019-05-10T07:30:41.816Z,92.2
2019-05-10T07:31:46.975Z,97.5
2019-05-10T07:33:01.757Z,94.8
2019-05-10T07:34:15.955Z,92.9
2019-05-10T07:35:15.841Z,91.8
2019-05-10T07:36:30.593Z,89.9
2019-05-10T07:37:35.267Z,90.5
2019-05-10T07:38:44.695Z,90.1
2019-05-10T07:39:55.320Z,92.3
2019-05-10T07:41:04.561Z,90
2019-05-10T07:42:13.560Z,87.2
2019-05-10T07:43:28.941Z,89.3
2019-05-10T07:44:32.896Z,86
2019-05-10T07:45:42.781Z,83.3
2019-05-10T07:46:58.594Z,81.8
2019-05-10T07:48:07.866Z,83.3
2019-05-10T07:49:11.497Z,82.8
2019-05-10T07:50:21.208Z,84.1
2019-05-10T07:52:45.606Z,87.2
2019-05-10T07:53:50.170Z,94.8
2019-05-10T07:54:59.864Z,92.9
2019-05-10T07:56:09.448Z,94.9
2019-05-10T07:57:26.970Z,91.5
2019-05-10T07:58:28.814Z,82.3
2019-05-10T07:59:51.334Z,82.6
2019-05-10T08:00:48.295Z,79.2
2019-05-10T08:01:58.042Z,75
2019-05-10T08:03:18.885Z,72.3
2019-05-10T08:04:28.716Z,69.5
2019-05-10T08:05:29.704Z,72.1
2019-05-10T08:06:47.756Z,70.2
2019-05-10T08:07:49.626Z,67.7
2019-05-10T08:09:06.230Z,65.5
2019-05-10T08:10:08.998Z,61.9
2019-05-10T08:11:16.217Z,60.8
2019-05-10T08:12:28.992Z,63.5
2019-05-10T08:13:35.862Z,63.5
2019-05-10T08:14:53.337Z,63
2019-05-10T08:15:55.654Z,66
2019-05-10T08:17:08.941Z,67.3
2019-05-10T08:18:23.997Z,69.5
2019-05-10T08:19:25.387Z,74.7
2019-05-10T08:20:53.729Z,72.4
2019-05-10T08:21:54.186Z,64.8
2019-05-10T08:22:55.034Z,64.6
2019-05-10T08:24:16.208Z,62.7
2019-05-10T08:25:15.536Z,63.1
2019-05-10T08:26:24.968Z,62.9
2019-05-10T08:27:34.470Z,63.1
2019-05-10T08:28:44.892Z,64.6
2019-05-10T08:30:24.987Z,65.2
2019-05-10T08:31:04.771Z,67.5
2019-05-10T08:32:14.370Z,67.7
2019-05-10T08:33:24.121Z,67.7
2019-05-10T08:34:39.297Z,66
2019-05-10T08:35:46.799Z,65.4
2019-05-10T08:36:53.774Z,64.2
2019-05-10T08:38:04.736Z,63.4
2019-05-10T08:39:15.441Z,62.3
2019-05-10T08:40:38.080Z,62.6
2019-05-10T08:41:37.322Z,63
2019-05-10T08:44:05.082Z,64
2019-05-10T08:45:12.828Z,62.7
2019-05-10T08:46:40.712Z,62.3
2019-05-10T08:47:36.781Z,61.5
2019-05-10T08:48:53.791Z,62.5
2019-05-10T08:50:31.309Z,67
2019-05-10T08:51:12.734Z,65.5
2019-05-10T08:52:31.062Z,66.2
2019-05-10T08:53:34.271Z,65.1
2019-05-10T08:54:46.201Z,64.7
2019-05-10T08:55:59.142Z,64.5
2019-05-10T08:57:18.650Z,63.3
2019-05-10T08:58:37.058Z,64.8
2019-05-10T08:59:34.095Z,64.2
2019-05-10T09:01:04.931Z,63.1
2019-05-10T09:01:57.792Z,63.7
2019-05-10T09:03:18.447Z,65.5
2019-05-10T09:05:34.155Z,66.7
2019-05-10T09:06:52.687Z,67.4
2019-05-10T09:07:57.346Z,67.7
2019-05-10T09:09:09.169Z,67.7
2019-05-10T09:10:24.752Z,68.7
2019-05-10T09:11:33.018Z,66
2019-05-10T09:12:57.534Z,68.5
2019-05-10T09:13:57.904Z,68.6
2019-05-10T09:15:13.030Z,68.9
2019-05-10T09:16:16.094Z,70.5
2019-05-10T09:17:28.597Z,69.4
2019-05-10T09:18:50.162Z,67
2019-05-10T09:19:52.022Z,67.3
2019-05-10T09:21:10.664Z,67.6
2019-05-10T09:22:13.483Z,67
2019-05-10T09:23:25.250Z,66.1
2019-05-10T09:24:48.813Z,64.8
2019-05-10T09:25:48.932Z,63.7
2019-05-10T09:27:01.997Z,65.5
2019-05-10T09:28:17.062Z,71
2019-05-10T09:29:22.050Z,71.7
2019-05-10T09:30:35.665Z,72.4
2019-05-10T09:31:50.580Z,71.8
2019-05-10T09:32:52.124Z,73.1
2019-05-10T09:34:02.656Z,72.5
2019-05-10T09:35:13.017Z,73
2019-05-10T09:36:30.874Z,75.2
2019-05-10T09:37:32.141Z,74.7
2019-05-10T09:38:46.270Z,74.5
2019-05-10T09:40:05.237Z,71.8
2019-05-10T09:41:04.173Z,71.1
2019-05-10T09:42:25.437Z,72
2019-05-10T09:43:24.207Z,73.7
2019-05-10T09:44:28.753Z,72.6
2019-05-10T09:45:38.361Z,72.5
2019-05-10T09:46:48.064Z,73.8
2019-05-10T09:47:57.736Z,76.6
2019-05-10T09:49:18.335Z,76.3
2019-05-10T09:50:17.182Z,76.1
2019-05-10T09:51:32.607Z,75.8
2019-05-10T09:52:36.672Z,83.1
2019-05-10T09:53:48.740Z,82.1
2019-05-10T09:56:07.994Z,83.8
2019-05-10T09:57:17.582Z,85.3
2019-05-10T09:58:24.972Z,84.5
2019-05-10T09:59:36.975Z,85.8
2019-05-10T10:00:45.152Z,86.6
2019-05-10T10:01:53.954Z,86
2019-05-10T10:03:03.621Z,86.4
2019-05-10T10:04:13.277Z,87.5
2019-05-10T10:05:23.042Z,89.7
2019-05-10T10:06:32.673Z,91.9
2019-05-10T10:07:42.283Z,92.9
2019-05-10T10:08:53.674Z,93.6
2019-05-10T10:11:18.627Z,91.4
2019-05-10T10:12:20.866Z,92.5
2019-05-10T10:13:43.213Z,93.1
2019-05-10T10:14:43.457Z,94.6
2019-05-10T10:15:52.682Z,92.9
2019-05-10T10:17:03.469Z,93.7
2019-05-10T10:18:18.141Z,94.2
2019-05-10T10:19:24.424Z,92.7
2019-05-10T10:20:30.169Z,90.6
2019-05-10T10:21:39.134Z,85.9
2019-05-10T10:22:54.379Z,84.3
2019-05-10T10:24:00.611Z,81.1
2019-05-10T10:25:07.735Z,78.8
2019-05-10T10:26:22.257Z,76.3
2019-05-10T10:27:36.157Z,78.7
2019-05-10T10:28:39.746Z,77.9
2019-05-10T10:29:47.659Z,75.4
2019-05-10T10:31:05.494Z,70.8
2019-05-10T10:32:08.075Z,68.3
2019-05-10T10:33:25.261Z,66.6
2019-05-10T10:34:27.336Z,65.2
2019-05-10T10:35:34.295Z,65.9
2019-05-10T10:36:44.292Z,66.4
2019-05-10T10:38:02.655Z,65.7
2019-05-10T10:39:03.567Z,65.1
2019-05-10T10:40:18.214Z,64.4
2019-05-10T10:41:31.292Z,63.6
2019-05-10T10:42:38.408Z,62.4
2019-05-10T10:43:48.741Z,61.6
2019-05-10T10:45:00.364Z,60.7
2019-05-10T10:46:12.824Z,57.6
2019-05-10T10:47:32.074Z,57.8
2019-05-10T10:48:37.151Z,59.5
2019-05-10T10:49:47.559Z,58.5
2019-05-10T10:50:59.394Z,59
2019-05-10T10:52:13.690Z,59.5
2019-05-10T10:53:23.122Z,61.5
2019-05-10T10:54:39.834Z,58.9
2019-05-10T10:55:58.511Z,58.9
2019-05-10T10:56:59.759Z,59.1
2019-05-10T10:58:10.316Z,60.1
2019-05-10T10:59:22.141Z,60.2
2019-05-10T11:00:34.175Z,63.7
2019-05-10T11:01:56.740Z,63
2019-05-10T11:02:57.543Z,61.7
2019-05-10T11:04:09.989Z,59.7
2019-05-10T11:05:21.211Z,61
2019-05-10T11:06:33.030Z,60.7
2019-05-10T11:08:56.819Z,62.1
2019-05-10T11:10:19.059Z,62.3
2019-05-10T11:11:18.274Z,63.4
2019-05-10T11:12:28.009Z,63.9
2019-05-10T11:13:47.898Z,64.4
2019-05-10T11:14:51.672Z,66.8
2019-05-10T11:16:15.387Z,64.5
2019-05-10T11:17:15.135Z,64.1
2019-05-10T11:18:27.148Z,64.1
2019-05-10T11:20:54.236Z,63.2
2019-05-10T11:23:12.003Z,62
2019-05-10T11:24:23.075Z,63.5
2019-05-10T11:25:31.490Z,64
2019-05-10T11:26:45.070Z,63.9
2019-05-10T11:28:01.433Z,63.8
2019-05-10T11:29:04.759Z,63.7
2019-05-10T11:30:14.536Z,64.3
2019-05-10T11:31:24.435Z,64.9
2019-05-10T11:32:36.013Z,63.9
2019-05-10T11:33:58.317Z,63.2
2019-05-10T11:34:59.517Z,62.5
2019-05-10T11:36:11.586Z,62.2
2019-05-10T11:37:35.966Z,62
2019-05-10T11:38:32.752Z,60.6
2019-05-10T11:39:47.156Z,61.2
2019-05-10T11:40:54.332Z,62.3
2019-05-10T11:42:07.571Z,60.7
2019-05-10T11:43:26.985Z,59.4
2019-05-10T11:44:31.793Z,59.2
2019-05-10T11:45:44.289Z,58.5
2019-05-10T11:46:53.020Z,57.2
2019-05-10T11:48:02.745Z,59.3
2019-05-10T11:49:14.514Z,59.7
2019-05-10T11:50:35.252Z,59.1
2019-05-10T11:51:38.176Z,58.7
2019-05-10T11:52:51.628Z,57.5
2019-05-10T11:54:01.567Z,53.7
2019-05-10T11:55:13.356Z,51.2
2019-05-10T11:56:28.080Z,52.7
2019-05-10T11:57:44.259Z,52.4
2019-05-10T11:58:55.668Z,52.6
2019-05-10T12:00:00.672Z,53.9
2019-05-10T12:01:19.845Z,54.4
2019-05-10T12:02:43.099Z,53.4
2019-05-10T12:03:36.169Z,53.4
2019-05-10T12:04:47.919Z,54.4
2019-05-10T12:06:09.038Z,56.1
2019-05-10T12:07:13.208Z,57.1
2019-05-10T12:08:24.779Z,58.1
2019-05-10T12:09:36.646Z,57.2
2019-05-10T12:10:59.071Z,56.6
2019-05-10T12:13:24.414Z,56.1
2019-05-10T12:14:23.786Z,56.9
2019-05-10T12:15:35.622Z,57.2
2019-05-10T12:16:47.409Z,57.7
2019-05-10T12:18:05.164Z,57.1
2019-05-10T12:21:33.447Z,59.2
2019-05-10T12:22:47.249Z,61
2019-05-10T12:23:55.955Z,68.2
2019-05-10T12:27:21.721Z,67.3
2019-05-10T12:28:35.628Z,71.5
2019-05-10T12:29:38.639Z,72.7
2019-05-10T12:30:51.322Z,73.9
2019-05-10T12:31:58.041Z,71.8
2019-05-10T12:33:23.385Z,72.6
2019-05-10T12:34:17.456Z,70.5
2019-05-10T12:35:40.024Z,71.2
2019-05-10T12:36:37.000Z,70.3
2019-05-10T12:37:54.291Z,70.4
2019-05-10T12:38:58.942Z,71
2019-05-10T12:40:14.819Z,69.4
2019-05-10T12:41:15.304Z,70.7
2019-05-10T12:42:25.335Z,69.9
2019-05-10T12:43:34.601Z,71.7
2019-05-10T12:44:48.360Z,71.8
2019-05-10T12:45:53.832Z,72.1
2019-05-10T12:47:03.630Z,43.6
2019-05-10T12:48:13.064Z,60.6
2019-05-10T12:49:22.669Z,67.5
2019-05-10T12:50:32.475Z,74.2
2019-05-10T12:51:43.393Z,76.9
2019-05-10T12:53:13.081Z,79.1
2019-05-10T12:54:01.226Z,79.6
2019-05-10T12:55:10.648Z,81
2019-05-10T12:56:20.345Z,79.3
2019-05-10T12:57:29.805Z,82.8
2019-05-10T12:58:39.399Z,82
2019-05-10T12:59:48.986Z,85.6
2019-05-10T13:01:00.622Z,89.2
2019-05-10T13:02:13.332Z,89.8
2019-05-10T13:03:33.467Z,88.5
2019-05-10T13:04:41.156Z,86.6
2019-05-10T13:05:53.411Z,88.1
2019-05-10T13:06:58.538Z,84.6
2019-05-10T13:08:10.118Z,84.9
2019-05-10T13:09:40.538Z,83.3
2019-05-10T13:10:43.597Z,81.8
2019-05-10T13:11:45.000Z,81.7
2019-05-10T13:12:56.423Z,82.8
2019-05-10T13:14:09.844Z,81.5
2019-05-10T13:16:31.291Z,82
2019-05-10T13:17:50.986Z,82.6
2019-05-10T13:18:54.398Z,82.2
2019-05-10T13:20:05.932Z,82.4
2019-05-10T13:21:23.046Z,82.4
2019-05-10T13:22:38.917Z,80.1
2019-05-10T13:23:40.744Z,81.4
2019-05-10T13:24:52.394Z,80
2019-05-10T13:26:04.554Z,78.2
2019-05-10T13:27:15.465Z,81.4
2019-05-10T13:28:27.061Z,80.7
2019-05-10T13:30:50.250Z,79.4
2019-05-10T13:32:01.799Z,78.3
2019-05-10T13:33:29.433Z,79
2019-05-10T13:34:24.960Z,79.2
2019-05-10T13:35:36.809Z,79
2019-05-10T13:36:48.364Z,79
2019-05-10T13:38:06.395Z,78
2019-05-10T13:39:11.427Z,79.1
2019-05-10T13:40:23.853Z,79.2
2019-05-10T13:41:34.551Z,80.5
2019-05-10T13:42:46.243Z,78.6
2019-05-10T13:44:04.593Z,79.1
2019-05-10T13:45:09.394Z,80.3
2019-05-10T13:46:20.933Z,80.5
2019-05-10T13:47:32.545Z,79.5
2019-05-10T13:48:44.536Z,79.2
2019-05-10T13:49:55.741Z,79.8
2019-05-10T13:51:07.754Z,79.6
2019-05-10T13:52:18.945Z,77.2
2019-05-10T13:53:30.599Z,76.4
2019-05-10T13:54:42.253Z,76.4
2019-05-10T13:55:53.791Z,76.3
2019-05-10T13:57:05.409Z,75.9
2019-05-10T13:58:17.068Z,74.7
2019-05-10T13:59:28.677Z,74.2
2019-05-10T14:00:40.909Z,73.4
2019-05-10T14:01:52.124Z,74.2
2019-05-10T14:03:11.252Z,74
2019-05-10T14:04:16.426Z,74.6
2019-05-10T14:05:28.065Z,74.1
2019-05-10T14:06:39.763Z,74.2
2019-05-10T14:07:53.354Z,72.4
2019-05-10T14:09:03.318Z,70.9
2019-05-10T14:10:23.191Z,69.7
2019-05-10T14:11:26.297Z,69
2019-05-10T14:12:37.973Z,69.4
2019-05-10T14:13:49.617Z,69.2
2019-05-10T14:15:11.265Z,69.1
2019-05-10T14:16:19.943Z,69.8
2019-05-10T14:17:24.663Z,70.4
2019-05-10T14:18:36.685Z,69.2
2019-05-10T14:19:48.082Z,68.7
2019-05-10T14:20:59.804Z,70.8
2019-05-10T14:22:11.595Z,69.1
2019-05-10T14:23:23.363Z,68.5
2019-05-10T14:24:35.138Z,66
2019-05-10T14:25:46.879Z,67.5
2019-05-10T14:26:59.525Z,70.5
2019-05-10T14:28:17.403Z,69.1
2019-05-10T14:29:36.336Z,67.1
2019-05-10T14:30:34.121Z,65.5
2019-05-10T14:31:46.101Z,66.8
2019-05-10T14:32:57.888Z,66
2019-05-10T14:34:15.921Z,67.1
2019-05-10T14:37:48.394Z,68
2019-05-10T14:38:56.590Z,68.9
2019-05-10T14:40:08.563Z,69
2019-05-10T14:41:20.259Z,68.4
2019-05-10T14:42:34.154Z,68.3
2019-05-10T14:43:48.104Z,67.3
2019-05-10T14:45:01.966Z,65.2
2019-05-10T14:47:25.655Z,69.2
2019-05-10T14:48:37.776Z,68.2
2019-05-10T14:49:49.353Z,69
2019-05-10T14:52:12.848Z,70
2019-05-10T14:53:27.211Z,69.1
2019-05-10T14:54:44.332Z,70.3
2019-05-10T14:55:48.292Z,68.3
2019-05-10T14:57:02.163Z,69.2
2019-05-10T14:58:15.972Z,65.7
2019-05-10T14:59:29.867Z,66.2
2019-05-10T15:00:43.776Z,64.7
2019-05-10T15:01:57.741Z,64.2
2019-05-10T15:03:11.424Z,63.3
2019-05-10T15:04:47.171Z,63.7
2019-05-10T15:06:52.861Z,63.5
2019-05-10T15:08:06.765Z,63.2
2019-05-10T15:09:24.063Z,62.9
2019-05-10T15:10:41.621Z,63
2019-05-10T15:11:48.068Z,63.3
2019-05-10T15:13:01.936Z,63.2
2019-05-10T15:14:13.565Z,62.8
2019-05-10T15:15:25.352Z,64.1
2019-05-10T15:16:37.394Z,63.9
2019-05-10T15:18:01.820Z,63.6
2019-05-10T15:19:02.482Z,63.1
2019-05-10T15:20:16.325Z,63.2
2019-05-10T15:21:30.007Z,62.8
2019-05-10T15:22:41.723Z,62.8
2019-05-10T15:24:00.709Z,64
2019-05-10T15:25:05.203Z,64.6
2019-05-10T15:26:17.035Z,64.7
2019-05-10T15:27:28.683Z,65.4
2019-05-10T15:28:42.814Z,66.2
2019-05-10T15:29:52.076Z,67.2
2019-05-10T15:31:03.834Z,67.6
2019-05-10T15:32:15.508Z,68.4
2019-05-10T15:33:27.168Z,68.5
2019-05-10T15:34:38.863Z,69.3
2019-05-10T15:35:53.855Z,68.7
2019-05-10T15:37:10.697Z,69.3
2019-05-10T15:38:13.946Z,69.2
2019-05-10T15:39:30.478Z,69.7
2019-05-10T15:41:47.054Z,78.1
2019-05-10T15:42:58.656Z,71.6
2019-05-10T15:44:10.328Z,70.5
2019-05-10T15:45:22.066Z,69.9
2019-05-10T15:46:42.415Z,69.2
2019-05-10T15:47:52.079Z,69.2
2019-05-10T15:48:57.197Z,68.6
2019-05-10T15:50:09.192Z,69.3
2019-05-10T15:51:36.656Z,69.3
2019-05-10T15:52:32.796Z,69.8
2019-05-10T15:53:44.684Z,69.8
2019-05-10T15:54:56.476Z,70.1
2019-05-10T15:56:08.229Z,69.2
2019-05-10T15:57:22.101Z,69.5
2019-05-10T15:58:41.610Z,70.3
2019-05-10T15:59:43.651Z,72.3
2019-05-10T16:00:55.275Z,72.2
2019-05-10T16:02:07.059Z,73.3
2019-05-10T16:03:16.765Z,81
2019-05-10T16:04:26.416Z,81.2
2019-05-10T16:05:44.145Z,81.3
2019-05-10T16:06:45.808Z,82.2
2019-05-10T16:07:55.448Z,82.4
2019-05-10T16:09:19.061Z,83.5
2019-05-10T16:10:14.794Z,83.1
2019-05-10T16:11:24.476Z,83.4
2019-05-10T16:12:42.930Z,83.6
2019-05-10T16:13:43.830Z,83.2
2019-05-10T16:14:53.583Z,84.9
2019-05-10T16:16:03.153Z,84.6
2019-05-10T16:17:23.019Z,83.1
2019-05-10T16:18:22.437Z,84.4
2019-05-10T16:19:32.451Z,82.8
2019-05-10T16:20:42.794Z,83